HECAHAAB

Guest
Details From HECA - Cairo Intl
To HAAB - Bole Intl
Flight Number -
Tags Generated
Created
Modified
Stats Distance 1,337 nm / 2,476 km
Max Altitude 0 ft / 0 m
Waypoints 3
Social Downloads 6
Likes 0
Share VATSIM

Download

Looking for another format? Having issues loading an existing format? Contact us
Advertisement - Login to hide

Notes

Generated

Route

HECA GWZ HAAB

ID Type Via Altitude Latitude Longitude Leg Dist Tot Dist Heading (true) Name
O HECA APT - 0 ft / 0 m 30.13821˚ 31.40615˚ - 0 nm - -
GWZ VOR - 0 ft / 0 m 9.10620˚ 38.76992˚ 1329 nm 1329 nm 160° / 163° GAWASA VOR-DME
O HAAB APT - 0 ft / 0 m 8.97398˚ 38.78241˚ 7 nm 1336 nm 175° / 175° -

Altitude Profile

Advertisement - Login to hide

Weather


0- 5 10 15 20 25 30 35+ Temperature / ° C

Clouds and Precipitation
Forecast for 2017-12-15 06:00 UTC. Updated an hour ago

Ground ~20,000 ft ~40,000 ft Winds

HECA

Details ICAO HECA (CAI)
Name Cairo Intl
Region Egypt
Timezone Africa/Cairo (UTC+2.0)
Stats Elevation 382 ft / 116 m (AMSL)
Location 30.121808° 31.406095°
Runways 3
Magnetic Variation 4.404° E

METAR

HECA 150630Z 25006KT 6000 NSC 17/11 Q1022 NOSIG

Decode

TAF

TAF TAF HECA 150505Z 1506/1612 32007KT 9999 SCT025 TEMPO 1506/1508 VRB03KT TEMPO 1603/1606 VRB03KT 4000 BR NSC

Decode

Departure Runways

ID Width Length Bearing (true) Bearing (mag) Surface Threshold Offset Overrun Length
05L 197 ft / 60 m 10,833 ft / 3,302 m 49.29° 44.89° Asphalt 0 ft / 0 m 185 ft / 56 m
05R 197 ft / 60 m 13,126 ft / 4,001 m 49.03° 44.63° Asphalt 0 ft / 0 m 216 ft / 66 m
16 197 ft / 60 m 10,456 ft / 3,187 m 162.61° 158.21° Asphalt 0 ft / 0 m 125 ft / 38 m
23L 197 ft / 60 m 13,126 ft / 4,001 m 229.05° 224.65° Asphalt 0 ft / 0 m 225 ft / 69 m
23R 197 ft / 60 m 10,833 ft / 3,302 m 229.30° 224.90° Asphalt 0 ft / 0 m 185 ft / 56 m
34 197 ft / 60 m 10,456 ft / 3,187 m 342.61° 338.21° Asphalt 0 ft / 0 m 195 ft / 59 m

HAAB

Details ICAO HAAB (ADD)
Name BOLE INTL
Region Ethiopia
Timezone Africa/Addis_Ababa (UTC+3.0)
Stats Elevation 7,656 ft / 2,334 m (AMSL)
Location 8.977892° 38.799321°
Runways 2
Magnetic Variation 2.274° E

METAR

HAAB 150600Z 19003KT 9000 HZ SKC 18/M02 Q1027

Decode

TAF

Not found

Destination Runways

ID Width Length Bearing (true) Bearing (mag) Surface Threshold Offset Overrun Length
07L 148 ft / 45 m 12,136 ft / 3,699 m 73.56° 71.29° Asphalt 825 ft / 251 m 195 ft / 59 m
07R 148 ft / 45 m 12,460 ft / 3,798 m 73.53° 71.26° Asphalt 1,185 ft / 361 m 295 ft / 90 m
25L 148 ft / 45 m 12,460 ft / 3,798 m 253.53° 251.26° Asphalt 1,170 ft / 357 m 295 ft / 90 m
25R 148 ft / 45 m 12,136 ft / 3,699 m 253.56° 251.29° Asphalt 1,235 ft / 376 m 180 ft / 55 m

Approach Navaids

Runway Type Ident Frequency Range Bearing (true) Bearing (mag) Slope Elevation
25L Localiser IAA 111.50 MHz 18 nm / 33 km 253.62° 251.35° - 7,624 ft / 2,324 m (AMSL)
25L Glidescope IAA 111.50 MHz 10 nm / 19 km 253.53° 251.26° 2.93° 7,623 ft / 2,323 m (AMSL)

Popular Alternatives